createdAt,value
2018-05-29T00:01:47.005Z,25.00
2018-05-29T00:04:12.935Z,24.90
2018-05-29T00:06:38.930Z,24.90
2018-05-29T00:09:04.929Z,24.90
2018-05-29T00:11:30.922Z,24.90
2018-05-29T00:13:56.968Z,24.80
2018-05-29T00:16:22.942Z,24.60
2018-05-29T00:18:48.959Z,24.50
2018-05-29T00:21:14.961Z,24.60
2018-05-29T00:23:40.962Z,24.60
2018-05-29T00:40:20.215Z,24.50
2018-05-29T00:42:46.189Z,24.50
2018-05-29T00:45:12.137Z,24.40
2018-05-29T00:47:38.145Z,24.40
2018-05-29T00:50:04.566Z,24.40
2018-05-29T00:52:30.541Z,24.50
2018-05-29T00:55:08.888Z,24.50
2018-05-29T00:57:34.922Z,24.40
2018-05-29T01:00:00.962Z,24.30
2018-05-29T01:02:26.945Z,24.40
2018-05-29T01:04:59.816Z,24.40
2018-05-29T01:07:25.787Z,24.50
2018-05-29T01:09:51.737Z,24.40
2018-05-29T01:12:17.714Z,24.40
2018-05-29T01:14:43.694Z,24.40
2018-05-29T01:17:09.667Z,24.30
2018-05-29T01:19:36.458Z,24.30
2018-05-29T01:22:02.460Z,24.40
2018-05-29T01:24:28.434Z,24.40
2018-05-29T01:26:54.413Z,24.40
2018-05-29T01:29:20.416Z,24.30
2018-05-29T01:31:46.418Z,24.30
2018-05-29T01:34:12.420Z,24.30
2018-05-29T01:36:38.469Z,24.30
2018-05-29T01:39:04.449Z,24.20
2018-05-29T01:41:30.437Z,24.20
2018-05-29T01:43:56.433Z,24.20
2018-05-29T01:46:22.485Z,24.10
2018-05-29T01:48:48.515Z,24.10
2018-05-29T01:51:14.530Z,24.10
2018-05-29T01:53:40.616Z,24.20
2018-05-29T01:56:06.605Z,24.10
2018-05-29T02:01:05.347Z,23.90
2018-05-29T02:03:31.349Z,23.70
2018-05-29T02:05:57.341Z,23.60
2018-05-29T02:08:23.306Z,23.60
2018-05-29T02:10:49.324Z,23.50
2018-05-29T02:13:15.327Z,23.40
2018-05-29T02:15:41.316Z,23.40
2018-05-29T02:18:07.321Z,23.40
2018-05-29T02:20:33.273Z,23.50
2018-05-29T02:22:59.241Z,23.40
2018-05-29T02:25:25.286Z,23.40
2018-05-29T02:27:51.264Z,23.40
2018-05-29T02:30:17.265Z,23.50
2018-05-29T02:32:43.262Z,23.60
2018-05-29T02:35:09.277Z,23.70
2018-05-29T02:37:35.254Z,23.60
2018-05-29T02:40:01.296Z,23.60
2018-05-29T02:42:27.323Z,23.50
2018-05-29T02:44:53.323Z,23.40
2018-05-29T03:04:03.536Z,23.50
2018-05-29T03:06:29.516Z,23.40
2018-05-29T03:08:55.530Z,23.30
2018-05-29T03:11:21.659Z,23.30
2018-05-29T03:13:47.750Z,23.20
2018-05-29T03:16:13.726Z,23.20
2018-05-29T03:18:39.721Z,23.20
2018-05-29T03:21:05.666Z,23.10
2018-05-29T03:23:31.642Z,23.10
2018-05-29T03:25:57.717Z,23.10
2018-05-29T03:28:23.658Z,23.10
2018-05-29T03:30:50.430Z,23.10
2018-05-29T03:33:16.526Z,23.00
2018-05-29T03:35:42.470Z,23.00
2018-05-29T03:38:08.544Z,22.90
2018-05-29T03:40:34.533Z,22.90
2018-05-29T03:43:01.892Z,22.90
2018-05-29T03:45:28.002Z,22.90
2018-05-29T03:47:54.006Z,22.80
2018-05-29T03:50:20.072Z,22.80
2018-05-29T03:52:46.053Z,22.90
2018-05-29T03:55:12.030Z,22.90
2018-05-29T04:11:51.894Z,22.90
2018-05-29T04:14:17.834Z,22.90
2018-05-29T04:16:43.836Z,22.90
2018-05-29T04:19:09.838Z,22.90
2018-05-29T04:21:35.844Z,23.00
2018-05-29T04:24:01.811Z,23.00
2018-05-29T04:26:28.741Z,23.00
2018-05-29T04:28:54.716Z,23.00
2018-05-29T04:31:20.829Z,23.10
2018-05-29T04:33:46.848Z,23.20
2018-05-29T04:36:12.856Z,23.10
2018-05-29T04:38:38.997Z,23.20
2018-05-29T04:41:05.147Z,23.20
2018-05-29T04:43:31.820Z,23.20
2018-05-29T04:45:57.858Z,23.20
2018-05-29T04:48:23.836Z,23.10
2018-05-29T04:50:56.746Z,23.10
2018-05-29T04:53:22.826Z,23.10
2018-05-29T04:55:48.905Z,23.20
2018-05-29T04:58:15.213Z,23.30
2018-05-29T05:00:41.221Z,23.30
2018-05-29T05:03:07.989Z,23.40
2018-05-29T05:05:33.957Z,23.40
2018-05-29T05:07:59.971Z,23.40
2018-05-29T05:10:26.779Z,23.50
2018-05-29T05:12:52.889Z,23.40
2018-05-29T05:15:19.352Z,23.70
2018-05-29T05:17:45.472Z,23.60
2018-05-29T05:20:11.427Z,23.80
2018-05-29T05:22:37.466Z,23.70
2018-05-29T05:25:03.497Z,23.70
2018-05-29T05:27:29.507Z,23.90
2018-05-29T05:29:55.495Z,23.70
2018-05-29T05:32:21.915Z,23.60
2018-05-29T05:34:47.948Z,23.70
2018-05-29T05:37:14.022Z,23.80
2018-05-29T05:39:40.172Z,23.90
2018-05-29T05:42:06.334Z,24.00
2018-05-29T05:44:32.696Z,24.00
2018-05-29T05:47:00.525Z,24.10
2018-05-29T05:49:26.652Z,24.00
2018-05-29T05:51:52.676Z,23.90
2018-05-29T05:54:18.852Z,24.10
2018-05-29T05:56:44.850Z,24.10
2018-05-29T05:59:11.069Z,24.10
2018-05-29T06:01:37.665Z,24.10
2018-05-29T06:04:04.019Z,24.10
2018-05-29T06:06:30.039Z,24.20
2018-05-29T06:08:56.064Z,24.50
2018-05-29T06:11:22.339Z,24.50
2018-05-29T06:13:48.481Z,24.60
2018-05-29T06:16:14.554Z,24.60
2018-05-29T06:18:40.632Z,24.70
2018-05-29T06:21:06.694Z,24.80
2018-05-29T06:23:32.820Z,24.80
2018-05-29T06:25:58.996Z,24.70
2018-05-29T06:28:25.432Z,24.70
2018-05-29T06:30:51.491Z,24.70
2018-05-29T06:33:17.551Z,24.70
2018-05-29T06:35:43.527Z,24.80
2018-05-29T06:38:09.601Z,24.90
2018-05-29T06:40:35.665Z,24.80
2018-05-29T06:43:01.757Z,24.90
2018-05-29T06:45:27.915Z,24.90
2018-05-29T06:47:54.180Z,24.90
2018-05-29T06:50:20.854Z,25.00
2018-05-29T06:52:47.216Z,25.10
2018-05-29T06:55:13.368Z,25.20
2018-05-29T06:57:39.531Z,25.20
2018-05-29T07:00:06.436Z,25.20
2018-05-29T07:02:32.444Z,25.20
2018-05-29T07:21:44.492Z,25.50
2018-05-29T07:24:10.479Z,25.80
2018-05-29T07:26:36.627Z,25.70
2018-05-29T07:29:02.691Z,25.60
2018-05-29T07:31:28.669Z,25.40
2018-05-29T07:33:54.774Z,25.40
2018-05-29T07:36:20.798Z,25.50
2018-05-29T07:38:46.789Z,25.50
2018-05-29T07:41:12.932Z,25.60
2018-05-29T07:43:39.088Z,25.70
2018-05-29T07:46:05.127Z,25.70
2018-05-29T07:48:31.160Z,25.80
2018-05-29T07:50:57.277Z,25.70
2018-05-29T07:53:31.388Z,25.80
2018-05-29T07:55:57.495Z,25.90
2018-05-29T07:58:23.485Z,25.90
2018-05-29T08:00:49.546Z,26.00
2018-05-29T08:03:15.581Z,26.20
2018-05-29T08:05:41.703Z,26.20
2018-05-29T08:08:08.046Z,26.30
2018-05-29T08:10:34.150Z,26.20
2018-05-29T08:13:00.404Z,26.30
2018-05-29T08:15:27.922Z,26.50
2018-05-29T08:17:53.924Z,26.60
2018-05-29T08:20:19.934Z,26.50
2018-05-29T08:22:46.131Z,26.50
2018-05-29T08:25:12.390Z,26.60
2018-05-29T08:27:38.469Z,26.80
2018-05-29T08:30:05.939Z,26.80
2018-05-29T08:32:32.031Z,27.00
2018-05-29T08:34:58.430Z,27.00
2018-05-29T08:37:24.656Z,26.70
2018-05-29T08:39:50.705Z,26.60
2018-05-29T08:42:16.777Z,26.50
2018-05-29T08:44:43.279Z,26.30
2018-05-29T08:47:09.302Z,26.10
2018-05-29T09:03:45.653Z,27.10
2018-05-29T09:06:11.657Z,27.40
2018-05-29T09:08:38.359Z,27.40
2018-05-29T09:11:04.590Z,27.50
2018-05-29T09:30:16.870Z,28.00
2018-05-29T09:32:42.928Z,28.00
2018-05-29T09:35:08.962Z,28.10
2018-05-29T09:37:35.031Z,28.10
2018-05-29T09:40:01.007Z,28.20
2018-05-29T09:42:27.235Z,28.20
2018-05-29T09:44:53.223Z,28.20
2018-05-29T09:47:19.309Z,28.10
2018-05-29T09:49:45.814Z,28.10
2018-05-29T09:52:11.753Z,28.10
2018-05-29T09:54:37.732Z,28.30
2018-05-29T09:57:03.811Z,28.30
2018-05-29T09:59:29.861Z,28.30
2018-05-29T10:01:55.937Z,28.30
2018-05-29T10:04:22.001Z,28.40
2018-05-29T10:06:48.110Z,28.50
2018-05-29T10:09:14.097Z,28.60
2018-05-29T10:11:40.133Z,28.70
2018-05-29T10:14:06.238Z,28.60
2018-05-29T10:16:32.251Z,28.60
2018-05-29T10:18:58.212Z,28.70
2018-05-29T10:21:24.284Z,28.80
2018-05-29T10:23:50.432Z,28.90
2018-05-29T10:26:16.453Z,28.90
2018-05-29T10:28:42.665Z,28.90
2018-05-29T10:31:08.871Z,28.90
2018-05-29T10:33:34.933Z,29.00
2018-05-29T10:36:00.984Z,29.10
2018-05-29T10:38:27.056Z,29.20
2018-05-29T10:40:53.125Z,29.20
2018-05-29T10:43:19.241Z,29.40
2018-05-29T10:45:46.923Z,29.60
2018-05-29T10:48:19.961Z,29.80
2018-05-29T10:50:46.999Z,29.90
2018-05-29T10:53:13.973Z,29.80
2018-05-29T10:55:39.975Z,29.70
2018-05-29T10:58:06.238Z,29.70
2018-05-29T11:00:32.310Z,29.80
2018-05-29T11:02:58.316Z,30.00
2018-05-29T11:05:24.315Z,30.10
2018-05-29T11:07:50.431Z,30.10
2018-05-29T11:10:16.487Z,30.20
2018-05-29T11:12:42.614Z,30.10
2018-05-29T11:15:08.636Z,29.60
2018-05-29T11:17:34.752Z,29.80
2018-05-29T11:20:00.992Z,29.30
2018-05-29T11:22:27.269Z,29.10
2018-05-29T11:24:53.799Z,28.90
2018-05-29T11:27:20.030Z,28.60
2018-05-29T11:29:46.586Z,28.90
2018-05-29T11:32:12.876Z,29.20
2018-05-29T11:34:39.099Z,29.10
2018-05-29T11:37:05.202Z,29.30
2018-05-29T11:39:31.311Z,29.60
2018-05-29T11:41:59.344Z,29.30
2018-05-29T11:44:25.383Z,29.20
2018-05-29T11:46:51.388Z,29.20
2018-05-29T11:49:17.412Z,29.00
2018-05-29T11:51:44.933Z,28.70
2018-05-29T11:54:10.916Z,28.60
2018-05-29T11:56:37.095Z,28.50
2018-05-29T11:59:03.079Z,28.40
2018-05-29T12:01:29.097Z,28.40
2018-05-29T12:03:55.163Z,28.30
2018-05-29T12:06:21.256Z,28.00
2018-05-29T12:08:47.380Z,27.90
2018-05-29T12:11:13.419Z,28.10
2018-05-29T12:13:39.476Z,28.20
2018-05-29T12:16:06.470Z,28.40
2018-05-29T12:18:32.513Z,28.30
2018-05-29T12:20:58.732Z,28.10
2018-05-29T12:23:24.751Z,28.10
2018-05-29T12:42:36.607Z,28.10
2018-05-29T12:45:02.741Z,28.40
2018-05-29T12:47:28.928Z,28.50
2018-05-29T12:49:56.114Z,28.40
2018-05-29T12:52:22.152Z,28.20
2018-05-29T12:54:48.959Z,28.20
2018-05-29T12:57:15.036Z,28.20
2018-05-29T12:59:41.072Z,28.00
2018-05-29T13:02:07.033Z,28.00
2018-05-29T13:04:33.000Z,27.80
2018-05-29T13:06:58.956Z,27.70
2018-05-29T13:09:24.952Z,27.60
2018-05-29T13:11:50.972Z,27.60
2018-05-29T13:14:16.953Z,27.50
2018-05-29T13:16:43.030Z,27.40
2018-05-29T13:19:09.038Z,27.50
2018-05-29T13:21:35.048Z,27.50
2018-05-29T13:24:01.700Z,27.50
2018-05-29T13:26:27.710Z,27.70
2018-05-29T13:28:53.692Z,28.00
2018-05-29T13:31:19.774Z,28.50
2018-05-29T13:33:45.733Z,28.70
2018-05-29T13:36:14.097Z,28.70
2018-05-29T13:38:40.467Z,29.10
2018-05-29T13:41:06.575Z,29.50
2018-05-29T13:43:33.564Z,30.00
2018-05-29T13:45:59.596Z,30.40
2018-05-29T13:48:26.380Z,30.30
2018-05-29T13:50:52.426Z,30.60
2018-05-29T13:53:18.483Z,30.90
2018-05-29T13:55:45.534Z,30.80
2018-05-29T13:58:12.048Z,30.50
2018-05-29T14:00:38.163Z,29.90
2018-05-29T14:03:04.181Z,29.90
2018-05-29T14:05:30.175Z,30.30
2018-05-29T14:07:56.220Z,29.70
2018-05-29T14:10:22.283Z,29.20
2018-05-29T14:12:48.561Z,29.20
2018-05-29T14:15:14.582Z,29.40
2018-05-29T14:17:40.634Z,29.70
2018-05-29T14:20:08.111Z,30.00
2018-05-29T14:22:34.087Z,30.10
2018-05-29T14:25:00.132Z,29.80
2018-05-29T14:27:26.567Z,30.10
2018-05-29T14:29:53.666Z,30.20
2018-05-29T14:32:19.727Z,30.20
2018-05-29T14:34:45.737Z,29.80
2018-05-29T14:37:11.791Z,29.10
2018-05-29T14:39:37.935Z,29.00
2018-05-29T14:42:04.329Z,29.20
2018-05-29T14:44:31.094Z,29.10
2018-05-29T14:46:57.770Z,28.50
2018-05-29T14:49:23.745Z,28.40
2018-05-29T14:51:49.768Z,28.40
2018-05-29T14:54:15.731Z,28.30
2018-05-29T14:56:41.733Z,28.30
2018-05-29T15:15:56.026Z,26.60
2018-05-29T15:18:22.013Z,26.80
2018-05-29T15:20:47.987Z,26.60
2018-05-29T15:23:13.990Z,26.70
2018-05-29T15:25:39.972Z,26.60
2018-05-29T15:28:06.092Z,26.60
2018-05-29T15:30:32.572Z,26.40
2018-05-29T15:32:58.625Z,26.30
2018-05-29T15:35:24.639Z,26.40
2018-05-29T15:37:50.637Z,26.50
2018-05-29T15:40:16.884Z,26.40
2018-05-29T15:42:43.623Z,26.40
2018-05-29T15:45:09.697Z,26.40
2018-05-29T15:47:35.769Z,26.40
2018-05-29T15:50:01.808Z,26.30
2018-05-29T15:52:27.728Z,26.00
2018-05-29T15:54:53.701Z,25.80
2018-05-29T15:57:19.652Z,25.70
2018-05-29T15:59:45.663Z,25.70
2018-05-29T16:02:11.681Z,25.80
2018-05-29T16:04:37.651Z,25.70
2018-05-29T16:07:03.669Z,25.80
2018-05-29T16:09:29.642Z,25.70
2018-05-29T16:11:55.598Z,25.70
2018-05-29T16:14:21.738Z,25.70
2018-05-29T16:16:48.043Z,25.70
2018-05-29T16:19:14.024Z,25.60
2018-05-29T16:21:40.121Z,25.50
2018-05-29T16:24:06.063Z,25.50
2018-05-29T16:26:32.052Z,25.40
2018-05-29T16:29:01.356Z,25.50
2018-05-29T16:31:28.086Z,25.30
2018-05-29T16:33:54.052Z,25.30
2018-05-29T16:36:20.057Z,25.50
2018-05-29T16:38:46.062Z,25.50
2018-05-29T16:41:21.555Z,25.60
2018-05-29T16:43:47.527Z,25.60
2018-05-29T16:46:13.557Z,25.80
2018-05-29T16:48:39.640Z,25.80
2018-05-29T16:51:06.389Z,25.60
2018-05-29T16:53:33.530Z,25.60
2018-05-29T16:55:59.639Z,25.70
2018-05-29T16:58:26.065Z,25.70
2018-05-29T17:00:52.078Z,25.70
2018-05-29T17:03:18.754Z,25.90
2018-05-29T17:05:47.320Z,25.70
2018-05-29T17:08:14.340Z,25.50
2018-05-29T17:10:40.402Z,25.50
2018-05-29T17:13:06.498Z,25.60
2018-05-29T17:15:33.953Z,25.50
2018-05-29T17:18:02.291Z,25.40
2018-05-29T17:34:34.168Z,25.40
2018-05-29T17:37:00.308Z,25.50
2018-05-29T17:39:26.384Z,25.50
2018-05-29T17:41:52.458Z,25.50
2018-05-29T17:44:19.031Z,25.50
2018-05-29T17:46:45.271Z,25.40
2018-05-29T17:49:11.407Z,25.40
2018-05-29T17:51:38.136Z,25.40
2018-05-29T17:54:04.477Z,25.40
2018-05-29T17:56:30.656Z,25.40
2018-05-29T17:58:57.647Z,25.50
2018-05-29T18:01:23.930Z,25.60
2018-05-29T18:03:51.039Z,25.80
2018-05-29T18:06:17.533Z,26.00
2018-05-29T18:08:43.470Z,26.20
2018-05-29T18:11:09.666Z,26.20
2018-05-29T18:13:35.842Z,26.20
2018-05-29T18:16:02.024Z,26.20
2018-05-29T18:18:28.908Z,26.20
2018-05-29T18:20:56.909Z,26.30
2018-05-29T18:23:23.031Z,26.40
2018-05-29T18:25:51.349Z,26.20
2018-05-29T18:28:17.585Z,26.20
2018-05-29T18:30:44.696Z,26.10
2018-05-29T18:33:11.654Z,26.10
2018-05-29T18:35:37.845Z,26.10
2018-05-29T18:38:04.067Z,26.00
2018-05-29T18:40:30.223Z,25.90
2018-05-29T18:42:57.450Z,25.90
2018-05-29T18:45:24.355Z,25.80
2018-05-29T18:47:50.483Z,25.60
2018-05-29T18:50:16.554Z,25.50
2018-05-29T18:52:43.434Z,25.40
2018-05-29T18:55:11.111Z,25.40
2018-05-29T18:57:37.529Z,25.30
2018-05-29T19:00:06.657Z,25.30
2018-05-29T19:02:32.820Z,25.20
2018-05-29T19:04:59.251Z,25.20
2018-05-29T19:07:26.161Z,25.20
2018-05-29T19:09:52.301Z,25.20
2018-05-29T19:12:18.295Z,25.10
2018-05-29T19:14:44.317Z,24.90
2018-05-29T19:17:10.343Z,24.80
2018-05-29T19:19:36.297Z,24.80
2018-05-29T19:22:02.336Z,24.90
2018-05-29T19:24:28.363Z,24.90
2018-05-29T19:26:54.445Z,25.00
2018-05-29T19:29:20.502Z,25.00
2018-05-29T19:31:46.681Z,24.90
2018-05-29T19:34:13.472Z,24.80
2018-05-29T19:36:39.571Z,24.80
2018-05-29T19:39:05.701Z,24.80
2018-05-29T19:41:31.726Z,24.80
2018-05-29T19:43:57.783Z,24.70
2018-05-29T19:46:23.902Z,24.60
2018-05-29T19:48:50.036Z,24.40
2018-05-29T19:51:17.053Z,24.20
2018-05-29T19:53:43.028Z,24.20
2018-05-29T19:56:09.022Z,24.10
2018-05-29T19:58:35.029Z,24.10
2018-05-29T20:01:01.085Z,24.10
2018-05-29T20:03:29.938Z,24.10
2018-05-29T20:05:56.023Z,24.00
2018-05-29T20:08:22.066Z,24.00
2018-05-29T20:10:49.040Z,24.00
2018-05-29T20:13:15.141Z,23.90
2018-05-29T20:15:41.295Z,23.90
2018-05-29T20:18:08.253Z,23.80
2018-05-29T20:20:34.514Z,23.80
2018-05-29T20:23:00.594Z,23.80
2018-05-29T20:25:27.307Z,23.80
2018-05-29T20:27:53.359Z,23.90
2018-05-29T20:30:19.466Z,23.80
2018-05-29T20:32:46.525Z,23.70
2018-05-29T20:35:12.526Z,23.70
2018-05-29T20:37:38.501Z,23.70
2018-05-29T20:40:04.558Z,23.70
2018-05-29T20:42:30.699Z,23.70
2018-05-29T20:44:56.675Z,23.70
2018-05-29T20:47:22.727Z,23.60
2018-05-29T20:49:48.734Z,23.60
2018-05-29T20:52:14.704Z,23.50
2018-05-29T20:54:40.714Z,23.20
2018-05-29T20:57:06.756Z,23.20
2018-05-29T20:59:32.744Z,23.30
2018-05-29T21:01:58.708Z,23.20
2018-05-29T21:04:24.813Z,23.10
2018-05-29T21:06:50.774Z,23.00
2018-05-29T21:09:16.775Z,22.90
2018-05-29T21:11:43.049Z,22.90
2018-05-29T21:14:09.030Z,22.90
2018-05-29T21:16:34.980Z,22.80
2018-05-29T21:35:46.829Z,22.70
2018-05-29T21:38:12.854Z,22.80
2018-05-29T21:40:38.885Z,22.70
2018-05-29T21:43:04.873Z,22.60
2018-05-29T21:45:30.829Z,22.60
2018-05-29T21:47:56.781Z,22.60
2018-05-29T21:50:22.757Z,22.60
2018-05-29T21:52:48.799Z,22.70
2018-05-29T21:55:14.803Z,22.60
2018-05-29T21:57:40.803Z,22.60
2018-05-29T22:00:06.975Z,22.60
2018-05-29T22:02:32.998Z,22.50
2018-05-29T22:04:59.002Z,22.50
2018-05-29T22:07:24.944Z,22.40
2018-05-29T22:09:50.909Z,22.40
2018-05-29T22:12:16.850Z,22.40
2018-05-29T22:14:42.823Z,22.40
2018-05-29T22:17:08.781Z,22.40
2018-05-29T22:19:34.752Z,22.40
2018-05-29T22:22:00.720Z,22.40
2018-05-29T22:24:33.627Z,22.40
2018-05-29T22:26:59.568Z,22.40
2018-05-29T22:29:25.540Z,22.30
2018-05-29T22:32:02.857Z,22.40
2018-05-29T22:34:28.792Z,22.30
2018-05-29T22:36:54.808Z,22.30
2018-05-29T22:39:20.868Z,22.20
2018-05-29T22:41:46.843Z,22.20
2018-05-29T22:44:12.774Z,22.20
2018-05-29T22:46:38.704Z,22.10
2018-05-29T22:49:04.712Z,22.10
2018-05-29T22:51:30.662Z,22.10
2018-05-29T22:53:57.416Z,22.00
2018-05-29T22:56:23.400Z,22.00
2018-05-29T22:58:49.416Z,22.00
2018-05-29T23:01:15.359Z,21.90
2018-05-29T23:03:41.349Z,21.90
2018-05-29T23:06:07.291Z,21.90
2018-05-29T23:08:33.257Z,21.90
2018-05-29T23:10:59.232Z,22.00
2018-05-29T23:27:39.501Z,21.60
2018-05-29T23:30:05.486Z,21.30
2018-05-29T23:32:31.456Z,21.30
2018-05-29T23:34:57.387Z,21.20
2018-05-29T23:37:23.352Z,21.40
2018-05-29T23:39:49.292Z,21.40
2018-05-29T23:42:15.333Z,21.50
2018-05-29T23:44:41.337Z,21.60
2018-05-29T23:47:07.278Z,21.60
2018-05-29T23:49:33.200Z,21.50
2018-05-29T23:51:59.180Z,21.50
2018-05-29T23:54:25.148Z,21.40
2018-05-29T23:56:51.120Z,21.30
2018-05-29T23:59:17.085Z,21.30
